createdAt,value
2019-01-30T00:03:50.995Z,1.93
2019-01-30T00:12:48.492Z,1.10
2019-01-30T00:15:20.700Z,4.60
2019-01-30T00:18:09.581Z,2.80
2019-01-30T00:20:58.410Z,2.23
2019-01-30T00:26:57.905Z,2.33
2019-01-30T00:30:03.893Z,2.87
2019-01-30T00:32:28.295Z,2.10
2019-01-30T00:35:10.084Z,3.87
2019-01-30T00:37:51.866Z,4.57
2019-01-30T00:40:33.300Z,5.23
2019-01-30T00:43:14.774Z,4.30
2019-01-30T00:45:56.176Z,3.13
2019-01-30T00:48:37.682Z,5.40
2019-01-30T00:51:19.413Z,2.57
2019-01-30T00:54:00.990Z,2.17
2019-01-30T00:56:42.788Z,2.83
2019-01-30T00:59:24.239Z,4.83
2019-01-30T01:02:05.931Z,3.63
2019-01-30T01:04:47.751Z,1.63
2019-01-30T01:07:29.516Z,2.90
2019-01-30T01:10:19.276Z,4.07
2019-01-30T01:13:08.220Z,2.40
2019-01-30T01:19:25.093Z,2.20
2019-01-30T01:22:13.846Z,1.83
2019-01-30T01:31:34.091Z,1.50
2019-01-30T01:34:22.955Z,2.80
2019-01-30T01:43:39.759Z,5.20
2019-01-30T01:46:09.549Z,1.40
2019-01-30T01:48:39.324Z,2.97
2019-01-30T01:51:09.629Z,2.03
2019-01-30T01:53:39.368Z,3.50
2019-01-30T01:56:43.126Z,4.30
2019-01-30T01:59:19.475Z,1.60
2019-01-30T02:02:20.084Z,2.47
2019-01-30T02:04:39.705Z,1.90
2019-01-30T02:07:47.356Z,3.80
2019-01-30T02:10:36.263Z,2.30
2019-01-30T02:13:25.129Z,6.00
2019-01-30T02:19:23.229Z,7.37
2019-01-30T02:22:11.994Z,9.47
2019-01-30T02:27:59.834Z,3.60
2019-01-30T02:30:30.703Z,6.37
2019-01-30T02:33:39.732Z,4.73
2019-01-30T02:39:08.900Z,6.03
2019-01-30T02:41:57.745Z,5.83
2019-01-30T02:44:39.138Z,5.27
2019-01-30T02:46:59.198Z,4.67
2019-01-30T02:50:08.227Z,5.07
2019-01-30T02:52:49.763Z,7.07
2019-01-30T02:55:20.240Z,3.90
2019-01-30T02:58:09.104Z,5.73
2019-01-30T03:01:09.289Z,4.97
2019-01-30T03:03:48.245Z,7.40
2019-01-30T03:06:38.375Z,8.97
2019-01-30T03:12:37.785Z,5.77
2019-01-30T03:15:26.740Z,5.50
2019-01-30T03:24:04.908Z,7.67
2019-01-30T03:26:53.679Z,7.37
2019-01-30T03:29:42.446Z,7.87
2019-01-30T03:32:31.260Z,9.47
2019-01-30T03:35:38.875Z,10.47
2019-01-30T03:38:28.163Z,8.50
2019-01-30T03:44:16.436Z,7.87
2019-01-30T03:46:46.305Z,8.37
2019-01-30T03:49:35.067Z,8.53
2019-01-30T03:58:25.005Z,7.23
2019-01-30T04:10:14.041Z,8.50
2019-01-30T04:13:02.966Z,8.50
2019-01-30T04:15:53.191Z,8.07
2019-01-30T04:22:10.159Z,9.63
2019-01-30T04:25:10.786Z,13.53
2019-01-30T04:28:06.839Z,10.77
2019-01-30T04:37:03.884Z,10.17
2019-01-30T04:40:04.623Z,8.40
2019-01-30T04:42:43.156Z,12.80
2019-01-30T04:45:31.990Z,11.07
2019-01-30T04:48:20.735Z,10.47
2019-01-30T04:51:28.507Z,8.77
2019-01-30T04:54:17.235Z,10.10
2019-01-30T04:57:20.040Z,9.10
2019-01-30T04:59:56.529Z,10.57
2019-01-30T05:02:37.890Z,11.27
2019-01-30T05:05:19.402Z,8.30
2019-01-30T05:08:01.200Z,7.73
2019-01-30T05:10:31.261Z,10.27
2019-01-30T05:13:38.977Z,9.30
2019-01-30T05:16:27.924Z,12.23
2019-01-30T05:19:11.639Z,8.80
2019-01-30T05:21:29.186Z,12.13
2019-01-30T05:24:17.941Z,8.33
2019-01-30T05:26:47.759Z,8.37
2019-01-30T05:29:32.162Z,8.73
2019-01-30T05:32:08.220Z,10.07
2019-01-30T05:40:27.596Z,10.40
2019-01-30T05:43:16.420Z,11.80
2019-01-30T05:45:46.484Z,9.57
2019-01-30T05:48:55.979Z,11.60
2019-01-30T05:54:21.665Z,9.33
2019-01-30T06:00:01.071Z,12.47
2019-01-30T06:02:49.992Z,12.43
2019-01-30T06:05:19.836Z,11.97
2019-01-30T06:08:08.696Z,10.00
2019-01-30T06:10:57.466Z,13.27
2019-01-30T06:13:27.692Z,10.23
2019-01-30T06:22:17.822Z,13.97
2019-01-30T06:25:01.484Z,15.93
2019-01-30T06:28:03.758Z,12.63
2019-01-30T06:30:40.810Z,12.93
2019-01-30T06:36:30.248Z,10.87
2019-01-30T06:39:00.120Z,12.33
2019-01-30T06:41:48.951Z,12.53
2019-01-30T06:44:18.835Z,8.60
2019-01-30T06:47:07.678Z,12.63
2019-01-30T06:49:37.475Z,11.17
2019-01-30T06:52:07.550Z,10.90
2019-01-30T06:54:56.427Z,10.30
2019-01-30T06:57:26.473Z,13.93
2019-01-30T07:00:34.231Z,11.73
2019-01-30T07:03:04.487Z,10.40
2019-01-30T07:05:34.356Z,10.77
2019-01-30T07:08:04.170Z,11.90
2019-01-30T07:10:34.251Z,13.07
2019-01-30T07:16:23.722Z,15.93
2019-01-30T07:19:01.749Z,10.27
2019-01-30T07:21:43.300Z,10.53
2019-01-30T07:24:24.819Z,8.87
2019-01-30T07:29:50.442Z,9.47
2019-01-30T07:32:41.979Z,13.37
2019-01-30T07:35:03.663Z,13.80
2019-01-30T07:37:33.577Z,12.10
2019-01-30T07:40:22.485Z,11.37
2019-01-30T07:42:52.345Z,10.40
2019-01-30T07:46:02.144Z,11.27
2019-01-30T07:48:31.954Z,13.20
2019-01-30T07:51:02.082Z,10.40
2019-01-30T07:53:31.963Z,10.67
2019-01-30T07:56:15.676Z,11.90
2019-01-30T07:58:33.547Z,13.10
2019-01-30T08:01:03.392Z,8.83
2019-01-30T08:03:33.237Z,11.60
2019-01-30T08:06:22.053Z,10.80
2019-01-30T08:08:51.845Z,9.67
2019-01-30T08:11:40.628Z,11.53
2019-01-30T08:14:10.566Z,10.57
2019-01-30T08:16:52.015Z,9.50
2019-01-30T08:19:24.078Z,10.28
2019-01-30T08:21:54.142Z,9.37
2019-01-30T08:24:24.468Z,11.20
2019-01-30T08:29:45.149Z,12.20
2019-01-30T08:32:34.335Z,10.27
2019-01-30T08:35:23.483Z,8.97
2019-01-30T08:37:53.445Z,12.63
2019-01-30T08:40:23.665Z,8.20
2019-01-30T08:42:53.502Z,9.07
2019-01-30T08:45:42.320Z,8.60
2019-01-30T08:50:54.295Z,7.80
2019-01-30T08:53:45.571Z,10.87
2019-01-30T08:56:38.875Z,7.57
2019-01-30T08:59:06.109Z,9.77
2019-01-30T09:01:36.134Z,8.00
2019-01-30T09:04:06.507Z,9.43
2019-01-30T09:06:55.342Z,9.43
2019-01-30T09:09:25.456Z,8.07
2019-01-30T09:11:57.723Z,9.00
2019-01-30T09:14:26.830Z,7.67
2019-01-30T09:17:15.650Z,10.40
2019-01-30T09:19:47.585Z,8.57
2019-01-30T09:22:48.251Z,6.70
2019-01-30T09:25:08.955Z,10.67
2019-01-30T09:27:39.145Z,8.40
2019-01-30T09:32:55.533Z,8.00
2019-01-30T09:35:36.826Z,8.63
2019-01-30T09:37:58.501Z,9.00
2019-01-30T09:40:28.474Z,7.83
2019-01-30T09:49:07.168Z,11.57
2019-01-30T09:51:37.017Z,8.23
2019-01-30T09:54:06.902Z,8.37
2019-01-30T09:56:37.146Z,8.40
2019-01-30T09:59:25.883Z,7.33
2019-01-30T10:02:14.685Z,7.77
2019-01-30T10:04:44.496Z,8.23
2019-01-30T10:07:14.417Z,7.87
2019-01-30T10:09:44.652Z,7.57
2019-01-30T10:12:33.444Z,9.57
2019-01-30T10:15:23.221Z,9.47
2019-01-30T10:17:53.022Z,13.10
2019-01-30T10:20:24.741Z,11.87
2019-01-30T10:22:55.471Z,8.40
2019-01-30T10:25:28.467Z,7.47
2019-01-30T10:28:37.607Z,9.17
2019-01-30T10:31:07.499Z,9.80
2019-01-30T10:33:46.325Z,11.37
2019-01-30T10:36:09.396Z,7.77
2019-01-30T10:38:39.240Z,10.57
2019-01-30T10:41:09.375Z,9.40
2019-01-30T10:43:39.220Z,12.77
2019-01-30T10:46:09.052Z,9.60
2019-01-30T10:48:39.173Z,9.67
2019-01-30T10:54:18.260Z,8.90
2019-01-30T10:57:07.022Z,9.50
2019-01-30T10:59:55.857Z,10.43
2019-01-30T11:02:25.791Z,10.40
2019-01-30T11:04:55.911Z,11.90
2019-01-30T11:07:25.928Z,10.87
2019-01-30T11:12:58.412Z,10.17
2019-01-30T11:15:29.060Z,10.93
2019-01-30T11:17:59.703Z,9.73
2019-01-30T11:20:29.864Z,10.50
2019-01-30T11:23:00.050Z,12.30
2019-01-30T11:26:11.214Z,13.87
2019-01-30T11:28:41.457Z,12.10
2019-01-30T11:31:11.389Z,10.40
2019-01-30T11:33:41.353Z,11.37
2019-01-30T11:36:11.519Z,11.20
2019-01-30T11:38:41.464Z,12.30
2019-01-30T11:41:11.377Z,11.63
2019-01-30T11:44:18.987Z,13.73
2019-01-30T11:47:09.309Z,13.83
2019-01-30T11:49:39.519Z,12.03
2019-01-30T11:52:28.385Z,12.17
2019-01-30T11:54:58.505Z,14.40
2019-01-30T11:57:28.338Z,14.17
2019-01-30T11:59:58.316Z,13.00
2019-01-30T12:02:28.637Z,11.93
2019-01-30T12:04:58.477Z,13.67
2019-01-30T12:07:28.538Z,14.47
2019-01-30T12:10:36.355Z,14.20
2019-01-30T12:13:25.503Z,14.43
2019-01-30T12:15:58.924Z,12.63
2019-01-30T12:18:29.030Z,16.00
2019-01-30T12:20:58.942Z,15.60
2019-01-30T12:23:29.400Z,17.27
2019-01-30T12:25:59.380Z,12.63
2019-01-30T12:28:41.080Z,14.40
2019-01-30T12:31:11.288Z,14.43
2019-01-30T12:33:41.065Z,15.10
2019-01-30T12:36:11.003Z,15.03
2019-01-30T12:38:41.297Z,20.93
2019-01-30T12:41:11.199Z,20.33
2019-01-30T12:43:41.066Z,21.83
2019-01-30T12:52:20.002Z,25.63
2019-01-30T12:54:50.087Z,25.33
2019-01-30T12:57:19.889Z,23.93
2019-01-30T13:00:22.333Z,24.30
2019-01-30T13:06:10.559Z,25.77
2019-01-30T13:08:40.357Z,26.30
2019-01-30T13:11:29.247Z,26.67
2019-01-30T13:14:19.963Z,29.77
2019-01-30T13:19:49.981Z,29.67
2019-01-30T13:22:38.913Z,30.17
2019-01-30T13:25:09.142Z,33.17
2019-01-30T13:30:48.043Z,27.43
2019-01-30T13:33:19.460Z,26.40
2019-01-30T13:36:28.503Z,26.40
2019-01-30T13:39:17.348Z,30.47
2019-01-30T13:42:06.131Z,35.73
2019-01-30T13:44:36.370Z,32.93
2019-01-30T13:47:06.521Z,35.10
2019-01-30T13:49:55.365Z,28.13
2019-01-30T13:58:33.783Z,33.23
2019-01-30T14:01:22.977Z,33.97
2019-01-30T14:03:52.842Z,35.73
2019-01-30T14:06:41.724Z,38.97
2019-01-30T14:09:30.677Z,38.97
2019-01-30T14:12:19.494Z,39.43
2019-01-30T14:21:37.811Z,39.57
2019-01-30T14:24:08.025Z,38.07
2019-01-30T14:26:58.191Z,40.73
2019-01-30T14:29:57.905Z,34.73
2019-01-30T14:32:29.743Z,33.07
2019-01-30T14:35:39.748Z,32.63
2019-01-30T14:39:06.349Z,30.30
2019-01-30T14:45:13.849Z,24.83
2019-01-30T14:48:22.954Z,24.87
2019-01-30T14:51:32.626Z,23.17
2019-01-30T15:00:42.831Z,20.60
2019-01-30T15:03:21.659Z,16.60
2019-01-30T15:05:51.954Z,20.97
2019-01-30T15:08:21.935Z,18.67
2019-01-30T15:10:51.949Z,20.77
2019-01-30T15:13:22.321Z,21.23
2019-01-30T15:15:52.307Z,19.77
2019-01-30T15:18:22.130Z,19.73
2019-01-30T15:20:52.352Z,19.83
2019-01-30T15:23:22.254Z,20.13
2019-01-30T15:25:52.305Z,23.63
2019-01-30T15:28:22.502Z,22.07
2019-01-30T15:30:52.352Z,19.63
2019-01-30T15:33:22.151Z,21.90
2019-01-30T15:35:53.384Z,19.37
2019-01-30T15:38:23.273Z,21.60
2019-01-30T15:40:53.175Z,20.77
2019-01-30T15:43:24.953Z,21.23
2019-01-30T15:45:54.947Z,18.90
2019-01-30T15:48:27.832Z,17.13
2019-01-30T15:50:58.436Z,18.63
2019-01-30T15:53:29.973Z,14.37
2019-01-30T15:55:59.946Z,16.67
2019-01-30T15:58:33.471Z,18.00
2019-01-30T16:01:32.100Z,15.73
2019-01-30T16:04:05.923Z,16.20
2019-01-30T16:06:37.914Z,18.57
2019-01-30T16:09:09.960Z,17.90
2019-01-30T16:11:41.318Z,15.77
2019-01-30T16:14:12.667Z,15.43
2019-01-30T16:16:42.778Z,15.07
2019-01-30T16:19:12.808Z,13.53
2019-01-30T16:21:47.024Z,15.83
2019-01-30T16:24:17.327Z,16.77
2019-01-30T16:26:50.494Z,16.33
2019-01-30T16:29:21.881Z,12.80
2019-01-30T16:31:52.467Z,15.63
2019-01-30T16:34:22.335Z,13.67
2019-01-30T16:36:55.121Z,15.43
2019-01-30T16:39:29.127Z,14.57
2019-01-30T16:42:00.168Z,12.13
2019-01-30T16:44:30.283Z,12.17
2019-01-30T16:47:00.637Z,15.67
2019-01-30T16:49:30.530Z,12.63
2019-01-30T16:52:03.438Z,15.83
2019-01-30T16:54:33.998Z,12.93
2019-01-30T16:57:22.864Z,11.90
2019-01-30T17:00:25.476Z,12.33
2019-01-30T17:03:23.084Z,11.83
2019-01-30T17:05:53.481Z,9.73
2019-01-30T17:08:23.374Z,12.00
2019-01-30T17:11:31.270Z,9.97
2019-01-30T17:14:20.211Z,10.00
2019-01-30T17:17:16.732Z,9.07
2019-01-30T17:20:06.843Z,10.17
2019-01-30T17:22:37.116Z,10.47
2019-01-30T17:25:07.957Z,11.03
2019-01-30T17:27:56.907Z,9.07
2019-01-30T17:30:56.283Z,10.20
2019-01-30T17:33:26.861Z,7.80
2019-01-30T17:35:59.553Z,10.47
2019-01-30T17:38:30.474Z,10.13
2019-01-30T17:41:19.282Z,9.37
2019-01-30T17:50:18.227Z,11.83
2019-01-30T17:52:48.823Z,10.17
2019-01-30T17:55:38.410Z,11.80
2019-01-30T17:58:29.355Z,9.23
2019-01-30T18:01:01.310Z,12.77
2019-01-30T18:03:50.124Z,14.50
2019-01-30T18:06:29.687Z,8.87
2019-01-30T18:08:51.920Z,11.90
2019-01-30T18:11:59.769Z,11.50
2019-01-30T18:15:00.872Z,12.70
2019-01-30T18:17:20.631Z,18.10
2019-01-30T18:20:10.132Z,17.73
2019-01-30T18:22:40.405Z,14.40
2019-01-30T18:25:11.606Z,12.97
2019-01-30T18:27:41.554Z,12.33
2019-01-30T18:30:14.287Z,11.37
2019-01-30T18:32:44.861Z,17.63
2019-01-30T18:35:33.907Z,19.97
2019-01-30T18:38:04.503Z,16.13
2019-01-30T18:40:45.484Z,16.27
2019-01-30T18:43:26.393Z,17.20
2019-01-30T18:46:07.619Z,13.17
2019-01-30T18:48:48.762Z,14.23
2019-01-30T18:51:30.128Z,12.30
2019-01-30T18:56:43.422Z,14.80
2019-01-30T18:59:32.303Z,11.37
2019-01-30T19:02:02.264Z,13.27
2019-01-30T19:04:32.473Z,12.27
2019-01-30T19:07:02.488Z,11.43
2019-01-30T19:09:32.582Z,10.83
2019-01-30T19:12:23.164Z,13.73
2019-01-30T19:14:53.094Z,14.53
2019-01-30T19:17:41.968Z,13.63
2019-01-30T19:20:33.865Z,13.63
2019-01-30T19:23:41.775Z,13.47
2019-01-30T19:29:30.261Z,16.47
2019-01-30T19:32:00.416Z,13.40
2019-01-30T19:34:49.296Z,14.40
2019-01-30T19:37:38.203Z,12.00
2019-01-30T19:40:42.921Z,10.40
2019-01-30T19:43:52.482Z,10.53
2019-01-30T19:46:22.700Z,14.20
2019-01-30T19:48:52.910Z,13.40
2019-01-30T19:51:22.875Z,13.97
2019-01-30T20:00:24.041Z,10.03
2019-01-30T20:03:33.111Z,8.90
2019-01-30T20:06:22.216Z,10.17
2019-01-30T20:09:30.052Z,12.73
2019-01-30T20:12:00.448Z,14.27
2019-01-30T20:14:53.793Z,11.73
2019-01-30T20:17:42.889Z,11.73
2019-01-30T20:23:23.256Z,7.80
2019-01-30T20:29:21.568Z,12.23
2019-01-30T20:32:10.444Z,9.07
2019-01-30T20:35:13.109Z,9.60
2019-01-30T20:37:50.177Z,7.67
2019-01-30T20:40:39.132Z,11.60
2019-01-30T20:43:28.112Z,11.20
2019-01-30T20:46:17.184Z,12.50
2019-01-30T20:48:51.657Z,8.80
2019-01-30T20:51:37.807Z,7.70
2019-01-30T20:54:26.965Z,6.33
2019-01-30T20:57:23.061Z,9.50
2019-01-30T20:59:53.186Z,6.97
2019-01-30T21:02:34.676Z,6.53
2019-01-30T21:05:06.225Z,10.63
2019-01-30T21:07:37.278Z,9.93
2019-01-30T21:10:10.828Z,9.87
2019-01-30T21:12:59.758Z,9.97
2019-01-30T21:18:39.429Z,9.97
2019-01-30T21:21:34.409Z,6.17
2019-01-30T21:24:24.658Z,9.63
2019-01-30T21:27:13.971Z,10.00
2019-01-30T21:29:44.075Z,9.83
2019-01-30T21:38:46.005Z,9.13
2019-01-30T21:41:16.383Z,9.83
2019-01-30T21:43:47.197Z,7.37
2019-01-30T21:46:17.239Z,7.37
2019-01-30T21:48:55.322Z,10.43
2019-01-30T21:51:25.082Z,5.70
2019-01-30T21:53:55.140Z,8.27
2019-01-30T21:56:25.106Z,6.57
2019-01-30T21:58:55.852Z,12.77
2019-01-30T22:01:25.704Z,8.37
2019-01-30T22:03:58.666Z,11.47
2019-01-30T22:06:28.652Z,10.93
2019-01-30T22:09:17.713Z,10.93
2019-01-30T22:11:47.927Z,9.50
2019-01-30T22:14:48.815Z,6.73
2019-01-30T22:17:27.333Z,7.37
2019-01-30T22:23:38.493Z,10.67
2019-01-30T22:32:18.488Z,7.17
2019-01-30T22:35:08.036Z,4.30
2019-01-30T22:37:56.982Z,8.17
2019-01-30T22:40:27.162Z,7.10
2019-01-30T22:42:57.674Z,4.97
2019-01-30T22:49:00.102Z,3.23
2019-01-30T22:54:27.692Z,5.10
2019-01-30T22:56:57.612Z,7.13
2019-01-30T22:59:31.218Z,6.77
2019-01-30T23:02:04.510Z,4.47
2019-01-30T23:05:02.535Z,4.30
2019-01-30T23:07:43.604Z,4.50
2019-01-30T23:10:24.981Z,3.40
2019-01-30T23:13:12.591Z,5.57
2019-01-30T23:16:20.346Z,4.33
2019-01-30T23:19:28.160Z,4.80
2019-01-30T23:22:38.842Z,5.00
2019-01-30T23:25:47.747Z,3.80
2019-01-30T23:28:55.515Z,4.50
2019-01-30T23:32:03.316Z,3.83
2019-01-30T23:35:12.090Z,5.00
2019-01-30T23:38:20.022Z,10.93
2019-01-30T23:41:27.994Z,6.20
2019-01-30T23:44:35.853Z,5.77
2019-01-30T23:47:43.740Z,5.70
2019-01-30T23:51:10.362Z,2.57
2019-01-30T23:54:15.148Z,2.97
2019-01-30T23:57:12.723Z,3.50
